createdAt,value
2023-01-08T00:00:03.969Z,11.800000
2023-01-08T00:01:00.652Z,11.800000
2023-01-08T00:02:00.609Z,11.800000
2023-01-08T00:03:00.735Z,11.800000
2023-01-08T00:04:01.367Z,11.800000
2023-01-08T00:05:04.809Z,11.800000
2023-01-08T00:06:00.647Z,11.800000
2023-01-08T00:07:00.552Z,10.700000
2023-01-08T00:08:00.645Z,10.700000
2023-01-08T00:09:00.585Z,16.100000
2023-01-08T00:10:04.028Z,16.100000
2023-01-08T00:11:00.632Z,16.100000
2023-01-08T00:12:00.673Z,16.100000
2023-01-08T00:13:00.602Z,11.100000
2023-01-08T00:14:00.685Z,11.100000
2023-01-08T00:15:04.833Z,10.700000
2023-01-08T00:16:00.703Z,10.700000
2023-01-08T00:17:00.667Z,10.700000
2023-01-08T00:18:00.731Z,13.100000
2023-01-08T00:19:00.641Z,13.100000
2023-01-08T00:20:04.084Z,12.600000
2023-01-08T00:21:00.706Z,12.600000
2023-01-08T00:22:01.377Z,10.800000
2023-01-08T00:23:00.653Z,10.800000
2023-01-08T00:24:00.761Z,10.800000
2023-01-08T00:25:05.024Z,12.600000
2023-01-08T00:26:01.304Z,12.600000
2023-01-08T00:27:00.729Z,12.600000
2023-01-08T00:28:00.791Z,12.600000
2023-01-08T00:29:00.710Z,12.600000
2023-01-08T00:30:04.186Z,10.300000
2023-01-08T00:31:03.333Z,10.300000
2023-01-08T00:32:00.814Z,10.300000
2023-01-08T00:33:00.771Z,9.000000
2023-01-08T00:34:01.331Z,9.000000
2023-01-08T00:35:04.934Z,9.000000
2023-01-08T00:36:00.844Z,9.000000
2023-01-08T00:37:00.791Z,9.000000
2023-01-08T00:38:00.856Z,8.800000
2023-01-08T00:39:00.827Z,8.800000
2023-01-08T00:40:05.214Z,8.800000
2023-01-08T00:41:00.799Z,9.100000
2023-01-08T00:42:00.893Z,9.100000
2023-01-08T00:43:00.823Z,9.200000
2023-01-08T00:44:00.903Z,9.200000
2023-01-08T00:45:05.047Z,11.000000
2023-01-08T00:46:00.913Z,11.000000
2023-01-08T00:47:00.865Z,11.000000
2023-01-08T00:48:01.346Z,11.000000
2023-01-08T00:49:00.833Z,11.000000
2023-01-08T00:50:05.642Z,11.000000
2023-01-08T00:51:00.880Z,9.400000
2023-01-08T00:52:01.345Z,9.400000
2023-01-08T00:53:00.882Z,7.300000
2023-01-08T00:54:00.948Z,7.300000
2023-01-08T00:55:04.021Z,10.500000
2023-01-08T00:56:01.340Z,10.500000
2023-01-08T00:57:00.904Z,10.500000
2023-01-08T00:58:00.976Z,8.600000
2023-01-08T00:59:00.906Z,8.600000
2023-01-08T01:00:05.395Z,8.600000
2023-01-08T01:01:01.009Z,7.600000
2023-01-08T01:02:01.179Z,7.600000
2023-01-08T01:03:01.235Z,7.600000
2023-01-08T01:04:01.448Z,7.300000
2023-01-08T01:05:04.189Z,7.300000
2023-01-08T01:06:01.071Z,8.100000
2023-01-08T01:07:00.979Z,8.100000
2023-01-08T01:08:01.034Z,9.400000
2023-01-08T01:09:00.994Z,9.400000
2023-01-08T01:10:05.404Z,9.400000
2023-01-08T01:11:01.017Z,9.400000
2023-01-08T01:12:01.104Z,9.400000
2023-01-08T01:13:01.016Z,8.300000
2023-01-08T01:14:01.092Z,8.300000
2023-01-08T01:15:04.274Z,8.300000
2023-01-08T01:16:01.129Z,7.600000
2023-01-08T01:17:01.087Z,7.600000
2023-01-08T01:18:01.142Z,9.600000
2023-01-08T01:19:01.088Z,9.600000
2023-01-08T01:20:05.541Z,9.600000
2023-01-08T01:21:01.109Z,9.600000
2023-01-08T01:22:01.379Z,9.600000
2023-01-08T01:23:01.099Z,9.600000
2023-01-08T01:24:01.153Z,9.300000
2023-01-08T01:25:04.207Z,9.300000
2023-01-08T01:26:01.338Z,9.300000
2023-01-08T01:27:01.111Z,9.300000
2023-01-08T01:28:01.204Z,9.500000
2023-01-08T01:29:01.129Z,9.500000
2023-01-08T01:30:05.597Z,10.900000
2023-01-08T01:31:01.143Z,10.900000
2023-01-08T01:32:01.210Z,10.900000
2023-01-08T01:33:01.175Z,9.300000
2023-01-08T01:34:01.360Z,9.300000
2023-01-08T01:35:04.400Z,9.300000
2023-01-08T01:36:01.254Z,10.700000
2023-01-08T01:37:00.156Z,10.700000
2023-01-08T01:38:00.214Z,12.900000
2023-01-08T01:39:00.159Z,12.900000
2023-01-08T01:40:04.641Z,11.500000
2023-01-08T01:41:00.185Z,11.500000
2023-01-08T01:42:00.243Z,11.500000
2023-01-08T01:43:00.197Z,12.200000
2023-01-08T01:44:00.270Z,12.200000
2023-01-08T01:45:04.739Z,12.200000
2023-01-08T01:46:00.333Z,12.200000
2023-01-08T01:47:00.211Z,12.200000
2023-01-08T01:48:01.345Z,12.200000
2023-01-08T01:49:00.236Z,12.200000
2023-01-08T01:50:03.693Z,12.200000
2023-01-08T01:51:00.238Z,8.800000
2023-01-08T01:52:01.385Z,8.800000
2023-01-08T01:53:00.258Z,8.800000
2023-01-08T01:54:00.334Z,9.000000
2023-01-08T01:55:04.664Z,9.000000
2023-01-08T01:56:01.306Z,8.800000
2023-01-08T01:57:00.307Z,8.800000
2023-01-08T01:58:00.381Z,8.800000
2023-01-08T01:59:00.274Z,8.500000
2023-01-08T02:00:03.788Z,8.500000
2023-01-08T02:01:00.362Z,6.600000
2023-01-08T02:02:00.549Z,6.600000
2023-01-08T02:03:00.329Z,8.700000
2023-01-08T02:04:01.445Z,8.700000
2023-01-08T02:05:03.527Z,8.700000
2023-01-08T02:06:00.485Z,8.700000
2023-01-08T02:07:00.335Z,8.700000
2023-01-08T02:08:00.414Z,8.700000
2023-01-08T02:09:00.360Z,8.500000
2023-01-08T02:10:04.783Z,8.500000
2023-01-08T02:11:00.354Z,7.500000
2023-01-08T02:12:00.448Z,7.500000
2023-01-08T02:13:00.394Z,7.500000
2023-01-08T02:14:00.455Z,7.700000
2023-01-08T02:15:03.718Z,7.700000
2023-01-08T02:16:00.492Z,7.700000
2023-01-08T02:17:00.612Z,6.800000
2023-01-08T02:18:00.471Z,6.800000
2023-01-08T02:19:00.417Z,6.800000
2023-01-08T02:20:04.835Z,6.800000
2023-01-08T02:21:00.447Z,6.800000
2023-01-08T02:22:00.565Z,8.500000
2023-01-08T02:23:00.426Z,8.500000
2023-01-08T02:24:00.509Z,9.600000
2023-01-08T02:25:03.609Z,9.600000
2023-01-08T02:26:01.459Z,9.600000
2023-01-08T02:27:00.478Z,9.600000
2023-01-08T02:28:00.750Z,9.600000
2023-01-08T02:29:00.478Z,9.600000
2023-01-08T02:30:13.461Z,9.600000
2023-01-08T02:31:00.604Z,9.600000
2023-01-08T02:32:00.564Z,8.800000
2023-01-08T02:33:00.491Z,8.800000
2023-01-08T02:34:01.419Z,8.800000
2023-01-08T02:35:04.670Z,8.800000
2023-01-08T02:36:00.601Z,8.200000
2023-01-08T02:37:00.532Z,8.200000
2023-01-08T02:38:00.611Z,8.100000
2023-01-08T02:39:00.544Z,8.100000
2023-01-08T02:40:05.560Z,8.100000
2023-01-08T02:41:00.537Z,8.100000
2023-01-08T02:42:00.631Z,9.100000
2023-01-08T02:43:00.554Z,9.100000
2023-01-08T02:44:00.633Z,9.100000
2023-01-08T02:45:05.732Z,9.100000
2023-01-08T02:46:00.747Z,9.100000
2023-01-08T02:47:00.590Z,9.600000
2023-01-08T02:48:01.458Z,9.600000
2023-01-08T02:49:00.586Z,10.800000
2023-01-08T02:50:05.064Z,10.800000
2023-01-08T02:51:00.613Z,10.800000
2023-01-08T02:52:00.706Z,9.500000
2023-01-08T02:53:00.632Z,9.500000
2023-01-08T02:54:00.716Z,9.800000
2023-01-08T02:55:03.760Z,9.800000
2023-01-08T02:56:01.354Z,9.800000
2023-01-08T02:57:00.670Z,10.900000
2023-01-08T02:58:00.743Z,10.900000
2023-01-08T02:59:00.667Z,10.900000
2023-01-08T03:00:05.092Z,10.900000
2023-01-08T03:01:00.730Z,10.900000
2023-01-08T03:02:00.859Z,13.100000
2023-01-08T03:03:00.700Z,13.100000
2023-01-08T03:04:01.004Z,13.000000
2023-01-08T03:05:03.905Z,13.000000
2023-01-08T03:06:00.792Z,13.000000
2023-01-08T03:07:00.696Z,13.000000
2023-01-08T03:08:00.775Z,13.000000
2023-01-08T03:09:00.748Z,11.400000
2023-01-08T03:10:05.423Z,11.400000
2023-01-08T03:11:00.740Z,11.400000
2023-01-08T03:12:00.826Z,11.200000
2023-01-08T03:13:00.747Z,11.200000
2023-01-08T03:14:00.810Z,11.200000
2023-01-08T03:15:05.077Z,13.500000
2023-01-08T03:16:00.868Z,13.500000
2023-01-08T03:17:00.825Z,13.500000
2023-01-08T03:18:00.845Z,10.700000
2023-01-08T03:19:00.787Z,10.700000
2023-01-08T03:20:05.214Z,11.400000
2023-01-08T03:21:00.821Z,11.400000
2023-01-08T03:22:02.318Z,11.400000
2023-01-08T03:23:00.826Z,11.400000
2023-01-08T03:24:00.902Z,11.400000
2023-01-08T03:25:04.042Z,15.400000
2023-01-08T03:26:00.919Z,15.400000
2023-01-08T03:27:00.850Z,15.400000
2023-01-08T03:28:00.937Z,9.700000
2023-01-08T03:29:00.847Z,9.700000
2023-01-08T03:30:05.404Z,9.300000
2023-01-08T03:31:00.954Z,9.300000
2023-01-08T03:32:00.955Z,12.500000
2023-01-08T03:33:00.877Z,12.500000
2023-01-08T03:34:00.976Z,12.500000
2023-01-08T03:35:05.568Z,11.900000
2023-01-08T03:36:02.320Z,11.900000
2023-01-08T03:37:00.923Z,11.900000
2023-01-08T03:38:00.976Z,14.900000
2023-01-08T03:39:00.953Z,14.900000
2023-01-08T03:40:04.464Z,8.200000
2023-01-08T03:41:00.942Z,8.200000
2023-01-08T03:42:01.079Z,8.200000
2023-01-08T03:43:00.931Z,9.300000
2023-01-08T03:44:01.035Z,9.300000
2023-01-08T03:45:05.287Z,12.200000
2023-01-08T03:46:01.148Z,12.200000
2023-01-08T03:47:00.981Z,12.200000
2023-01-08T03:48:01.054Z,12.200000
2023-01-08T03:49:01.007Z,12.200000
2023-01-08T03:50:04.403Z,8.100000
2023-01-08T03:51:01.054Z,8.100000
2023-01-08T03:52:01.101Z,8.100000
2023-01-08T03:53:01.176Z,9.200000
2023-01-08T03:54:01.100Z,9.200000
2023-01-08T03:55:05.231Z,9.200000
2023-01-08T03:56:01.122Z,9.200000
2023-01-08T03:57:01.118Z,9.200000
2023-01-08T03:58:01.134Z,8.600000
2023-01-08T03:59:01.049Z,8.600000
2023-01-08T04:00:05.623Z,8.600000
2023-01-08T04:01:01.074Z,8.600000
2023-01-08T04:02:01.252Z,8.600000
2023-01-08T04:03:01.115Z,5.500000
2023-01-08T04:04:02.395Z,5.500000
2023-01-08T04:05:05.427Z,5.300000
2023-01-08T04:06:01.166Z,5.300000
2023-01-08T04:07:01.113Z,5.300000
2023-01-08T04:08:01.184Z,7.600000
2023-01-08T04:09:01.143Z,7.600000
2023-01-08T04:10:05.535Z,7.600000
2023-01-08T04:11:01.113Z,7.600000
2023-01-08T04:12:01.215Z,7.600000
2023-01-08T04:13:01.157Z,7.300000
2023-01-08T04:14:01.286Z,7.300000
2023-01-08T04:15:04.414Z,7.500000
2023-01-08T04:16:01.318Z,7.500000
2023-01-08T04:17:00.187Z,7.500000
2023-01-08T04:18:00.254Z,7.500000
2023-01-08T04:19:00.185Z,7.500000
2023-01-08T04:20:04.746Z,6.700000
2023-01-08T04:21:00.222Z,6.700000
2023-01-08T04:22:00.307Z,6.700000
2023-01-08T04:23:00.229Z,8.700000
2023-01-08T04:24:00.290Z,8.700000
2023-01-08T04:25:03.431Z,8.700000
2023-01-08T04:26:00.318Z,8.700000
2023-01-08T04:27:00.245Z,8.700000
2023-01-08T04:28:00.294Z,8.700000
2023-01-08T04:29:00.257Z,8.700000
2023-01-08T04:30:05.164Z,8.400000
2023-01-08T04:31:00.336Z,8.400000
2023-01-08T04:32:00.371Z,8.400000
2023-01-08T04:33:00.278Z,7.900000
2023-01-08T04:34:00.335Z,7.900000
2023-01-08T04:35:03.326Z,7.900000
2023-01-08T04:36:00.365Z,7.900000
2023-01-08T04:37:00.300Z,7.900000
2023-01-08T04:38:00.396Z,6.400000
2023-01-08T04:39:00.313Z,6.400000
2023-01-08T04:40:04.735Z,6.600000
2023-01-08T04:41:00.327Z,6.600000
2023-01-08T04:42:00.407Z,6.600000
2023-01-08T04:43:00.311Z,6.900000
2023-01-08T04:44:00.442Z,6.900000
2023-01-08T04:45:03.690Z,6.900000
2023-01-08T04:46:00.486Z,6.900000
2023-01-08T04:47:00.357Z,6.900000
2023-01-08T04:48:00.442Z,8.800000
2023-01-08T04:49:00.357Z,8.800000
2023-01-08T04:50:04.888Z,8.800000
2023-01-08T04:51:00.376Z,8.800000
2023-01-08T04:52:00.455Z,8.800000
2023-01-08T04:53:00.393Z,7.100000
2023-01-08T04:54:00.482Z,7.100000
2023-01-08T04:55:03.525Z,5.700000
2023-01-08T04:56:00.485Z,5.700000
2023-01-08T04:57:00.444Z,5.700000
2023-01-08T04:58:00.514Z,5.700000
2023-01-08T04:59:00.407Z,6.600000
2023-01-08T05:00:05.073Z,6.600000
2023-01-08T05:01:00.444Z,6.600000
2023-01-08T05:02:00.680Z,6.600000
2023-01-08T05:03:00.506Z,6.600000
2023-01-08T05:04:00.544Z,6.600000
2023-01-08T05:05:03.637Z,6.600000
2023-01-08T05:06:00.559Z,6.000000
2023-01-08T05:07:00.465Z,6.000000
2023-01-08T05:08:00.742Z,6.000000
2023-01-08T05:09:00.500Z,6.500000
2023-01-08T05:10:04.983Z,6.500000
2023-01-08T05:11:00.492Z,8.100000
2023-01-08T05:12:00.596Z,8.100000
2023-01-08T05:13:00.502Z,8.100000
2023-01-08T05:14:00.606Z,8.100000
2023-01-08T05:15:03.674Z,8.100000
2023-01-08T05:16:04.549Z,6.300000
2023-01-08T05:17:00.540Z,7.200000
2023-01-08T05:18:00.870Z,7.200000
2023-01-08T05:19:00.533Z,7.200000
2023-01-08T05:20:05.066Z,7.200000
2023-01-08T05:21:00.557Z,7.700000
2023-01-08T05:22:00.625Z,7.700000
2023-01-08T05:23:00.554Z,7.700000
2023-01-08T05:24:00.645Z,7.800000
2023-01-08T05:25:05.233Z,7.800000
2023-01-08T05:26:00.654Z,8.000000
2023-01-08T05:27:00.623Z,8.000000
2023-01-08T05:28:00.646Z,8.000000
2023-01-08T05:29:00.593Z,7.700000
2023-01-08T05:30:04.076Z,7.700000
2023-01-08T05:31:00.731Z,9.000000
2023-01-08T05:32:00.680Z,9.000000
2023-01-08T05:33:00.614Z,9.000000
2023-01-08T05:34:00.745Z,9.000000
2023-01-08T05:35:04.818Z,9.000000
2023-01-08T05:36:00.717Z,9.000000
2023-01-08T05:37:00.657Z,9.000000
2023-01-08T05:38:00.703Z,9.000000
2023-01-08T05:39:00.635Z,7.600000
2023-01-08T05:40:04.131Z,7.600000
2023-01-08T05:41:00.638Z,7.600000
2023-01-08T05:42:00.740Z,7.600000
2023-01-08T05:43:00.687Z,7.600000
2023-01-08T05:44:02.391Z,7.600000
2023-01-08T05:45:04.902Z,7.600000
2023-01-08T05:46:00.771Z,7.600000
2023-01-08T05:47:00.686Z,7.000000
2023-01-08T05:48:00.785Z,7.000000
2023-01-08T05:49:00.732Z,6.200000
2023-01-08T05:50:05.285Z,6.200000
2023-01-08T05:51:00.709Z,6.200000
2023-01-08T05:52:02.362Z,6.900000
2023-01-08T05:53:00.711Z,6.900000
2023-01-08T05:54:00.789Z,9.900000
2023-01-08T05:55:04.960Z,9.900000
2023-01-08T05:56:00.788Z,9.900000
2023-01-08T05:57:00.731Z,9.900000
2023-01-08T05:58:00.813Z,9.900000
2023-01-08T05:59:00.723Z,9.900000
2023-01-08T06:00:04.389Z,9.900000
2023-01-08T06:01:00.782Z,9.900000
2023-01-08T06:02:00.810Z,7.400000
2023-01-08T06:03:00.826Z,7.400000
2023-01-08T06:04:00.873Z,7.100000
2023-01-08T06:05:04.966Z,7.100000
2023-01-08T06:06:00.892Z,8.000000
2023-01-08T06:07:00.788Z,8.000000
2023-01-08T06:08:00.846Z,8.000000
2023-01-08T06:09:00.844Z,11.300000
2023-01-08T06:10:04.191Z,11.300000
2023-01-08T06:11:00.781Z,11.300000
2023-01-08T06:12:00.893Z,10.300000
2023-01-08T06:13:00.842Z,10.300000
2023-01-08T06:14:00.863Z,8.100000
2023-01-08T06:15:05.050Z,8.100000
2023-01-08T06:16:02.537Z,8.100000
2023-01-08T06:17:00.834Z,9.100000
2023-01-08T06:18:00.912Z,9.100000
2023-01-08T06:19:01.044Z,9.100000
2023-01-08T06:20:01.990Z,9.100000
2023-01-08T06:21:00.871Z,9.100000
2023-01-08T06:22:02.385Z,10.200000
2023-01-08T06:23:00.860Z,10.200000
2023-01-08T06:24:00.962Z,10.200000
2023-01-08T06:25:01.375Z,10.200000
2023-01-08T06:26:02.376Z,9.800000
2023-01-08T06:27:00.910Z,9.800000
2023-01-08T06:28:00.951Z,9.800000
2023-01-08T06:29:00.907Z,15.400000
2023-01-08T06:30:02.404Z,15.400000
2023-01-08T06:31:00.994Z,15.400000
2023-01-08T06:32:00.973Z,15.400000
2023-01-08T06:33:00.926Z,15.400000
2023-01-08T06:34:02.341Z,7.600000
2023-01-08T06:35:01.493Z,7.600000
2023-01-08T06:36:01.064Z,7.600000
2023-01-08T06:37:00.940Z,9.600000
2023-01-08T06:38:01.038Z,9.600000
2023-01-08T06:39:00.970Z,9.900000
2023-01-08T06:40:01.709Z,9.900000
2023-01-08T06:41:00.988Z,9.900000
2023-01-08T06:42:01.085Z,9.900000
2023-01-08T06:43:00.985Z,9.900000
2023-01-08T06:44:01.069Z,9.900000
2023-01-08T06:45:01.520Z,8.800000
2023-01-08T06:46:01.069Z,8.800000
2023-01-08T06:47:00.996Z,8.800000
2023-01-08T06:48:02.385Z,8.800000
2023-01-08T06:49:01.041Z,8.800000
2023-01-08T06:50:01.771Z,8.400000
2023-01-08T06:51:01.077Z,8.400000
2023-01-08T06:52:01.135Z,8.400000
2023-01-08T06:53:01.065Z,8.400000
2023-01-08T06:54:01.202Z,8.400000
2023-01-08T06:55:01.553Z,8.300000
2023-01-08T06:56:01.185Z,8.300000
2023-01-08T06:57:01.094Z,8.300000
2023-01-08T06:58:01.166Z,8.300000
2023-01-08T06:59:01.104Z,8.300000
2023-01-08T07:00:02.009Z,6.300000
2023-01-08T07:01:01.139Z,6.300000
2023-01-08T07:02:02.599Z,6.300000
2023-01-08T07:03:01.309Z,6.300000
2023-01-08T07:04:01.207Z,6.300000
2023-01-08T07:05:01.767Z,5.800000
2023-01-08T07:06:00.256Z,5.800000
2023-01-08T07:07:00.169Z,5.800000
2023-01-08T07:08:00.214Z,6.300000
2023-01-08T07:09:00.186Z,6.300000
2023-01-08T07:10:01.567Z,10.100000
2023-01-08T07:11:00.184Z,10.100000
2023-01-08T07:12:00.291Z,10.100000
2023-01-08T07:13:00.213Z,12.200000
2023-01-08T07:14:00.344Z,12.200000
2023-01-08T07:15:01.079Z,12.200000
2023-01-08T07:16:00.386Z,12.200000
2023-01-08T07:17:00.243Z,12.200000
2023-01-08T07:18:00.345Z,12.200000
2023-01-08T07:19:00.252Z,12.200000
2023-01-08T07:20:01.036Z,6.700000
2023-01-08T07:21:00.285Z,6.700000
2023-01-08T07:22:00.339Z,6.700000
2023-01-08T07:23:00.265Z,6.700000
2023-01-08T07:24:00.568Z,6.700000
2023-01-08T07:25:00.785Z,6.600000
2023-01-08T07:26:00.393Z,6.600000
2023-01-08T07:27:00.304Z,6.600000
2023-01-08T07:28:00.361Z,8.500000
2023-01-08T07:29:00.315Z,8.500000
2023-01-08T07:30:01.137Z,9.200000
2023-01-08T07:31:00.363Z,9.200000
2023-01-08T07:32:00.415Z,9.200000
2023-01-08T07:33:00.348Z,9.100000
2023-01-08T07:34:00.398Z,9.100000
2023-01-08T07:35:01.042Z,9.000000
2023-01-08T07:36:00.453Z,9.000000
2023-01-08T07:37:00.354Z,9.000000
2023-01-08T07:38:00.451Z,9.000000
2023-01-08T07:39:00.371Z,9.000000
2023-01-08T07:40:02.352Z,8.700000
2023-01-08T07:41:00.398Z,8.700000
2023-01-08T07:42:00.514Z,8.700000
2023-01-08T07:43:00.385Z,10.300000
2023-01-08T07:44:00.489Z,10.300000
2023-01-08T07:45:00.915Z,12.800000
2023-01-08T07:46:00.480Z,12.800000
2023-01-08T07:47:00.420Z,12.800000
2023-01-08T07:48:00.538Z,12.800000
2023-01-08T07:49:00.433Z,12.800000
2023-01-08T07:50:01.232Z,11.100000
2023-01-08T07:51:00.487Z,11.100000
2023-01-08T07:52:00.540Z,11.100000
2023-01-08T07:53:00.483Z,11.100000
2023-01-08T07:54:00.600Z,11.100000
2023-01-08T07:55:00.996Z,9.500000
2023-01-08T07:56:00.570Z,9.500000
2023-01-08T07:57:00.541Z,11.200000
2023-01-08T07:58:00.619Z,11.200000
2023-01-08T07:59:00.537Z,11.200000
2023-01-08T08:00:01.382Z,11.200000
2023-01-08T08:01:00.560Z,11.200000
2023-01-08T08:02:00.781Z,11.200000
2023-01-08T08:03:00.684Z,14.000000
2023-01-08T08:04:00.632Z,14.000000
2023-01-08T08:05:01.150Z,14.000000
2023-01-08T08:06:00.707Z,8.400000
2023-01-08T08:07:00.599Z,8.400000
2023-01-08T08:08:00.670Z,9.900000
2023-01-08T08:09:00.622Z,9.900000
2023-01-08T08:10:02.109Z,9.900000
2023-01-08T08:11:00.640Z,9.900000
2023-01-08T08:12:00.725Z,9.900000
2023-01-08T08:13:00.635Z,9.700000
2023-01-08T08:14:00.741Z,9.700000
2023-01-08T08:15:01.167Z,9.700000
2023-01-08T08:16:00.810Z,8.200000
2023-01-08T08:17:00.668Z,8.200000
2023-01-08T08:18:00.761Z,8.400000
2023-01-08T08:19:00.680Z,8.400000
2023-01-08T08:20:01.445Z,8.400000
2023-01-08T08:21:00.710Z,8.200000
2023-01-08T08:22:02.369Z,8.200000
2023-01-08T08:23:00.683Z,8.200000
2023-01-08T08:24:00.798Z,8.200000
2023-01-08T08:25:01.227Z,8.200000
2023-01-08T08:26:00.793Z,7.600000
2023-01-08T08:27:00.726Z,7.600000
2023-01-08T08:28:00.772Z,7.600000
2023-01-08T08:29:00.735Z,10.000000
2023-01-08T08:30:01.542Z,10.000000
2023-01-08T08:31:00.784Z,10.000000
2023-01-08T08:32:00.790Z,10.000000
2023-01-08T08:33:00.750Z,8.300000
2023-01-08T08:34:00.825Z,8.300000
2023-01-08T08:35:01.418Z,8.300000
2023-01-08T08:36:00.862Z,8.100000
2023-01-08T08:37:00.789Z,8.100000
2023-01-08T08:38:00.869Z,8.100000
2023-01-08T08:39:00.818Z,8.000000
2023-01-08T08:40:02.364Z,8.000000
2023-01-08T08:41:00.798Z,8.000000
2023-01-08T08:42:00.909Z,8.000000
2023-01-08T08:43:00.852Z,8.000000
2023-01-08T08:44:00.874Z,8.000000
2023-01-08T08:45:01.367Z,8.000000
2023-01-08T08:46:00.919Z,9.700000
2023-01-08T08:47:00.885Z,9.700000
2023-01-08T08:48:00.954Z,9.700000
2023-01-08T08:49:00.841Z,9.300000
2023-01-08T08:50:01.600Z,9.300000
2023-01-08T08:51:00.882Z,9.300000
2023-01-08T08:52:00.939Z,10.300000
2023-01-08T08:53:00.861Z,10.300000
2023-01-08T08:54:00.998Z,10.300000
2023-01-08T08:55:01.396Z,10.300000
2023-01-08T08:56:00.964Z,10.300000
2023-01-08T08:57:00.918Z,10.300000
2023-01-08T08:58:02.360Z,10.300000
2023-01-08T08:59:00.928Z,9.800000
2023-01-08T09:00:01.743Z,9.800000
2023-01-08T09:01:00.933Z,9.800000
2023-01-08T09:02:01.147Z,9.800000
2023-01-08T09:03:01.243Z,9.800000
2023-01-08T09:04:01.031Z,9.800000
2023-01-08T09:05:01.967Z,9.800000
2023-01-08T09:06:01.070Z,9.700000
2023-01-08T09:07:01.005Z,9.700000
2023-01-08T09:08:01.080Z,9.700000
2023-01-08T09:09:01.004Z,9.700000
2023-01-08T09:10:01.722Z,9.700000
2023-01-08T09:11:01.033Z,9.700000
2023-01-08T09:12:02.383Z,8.700000
2023-01-08T09:13:01.025Z,8.700000
2023-01-08T09:14:01.075Z,7.600000
2023-01-08T09:15:01.555Z,7.600000
2023-01-08T09:16:01.162Z,9.700000
2023-01-08T09:17:01.082Z,9.700000
2023-01-08T09:18:01.166Z,9.700000
2023-01-08T09:19:01.054Z,9.700000
2023-01-08T09:20:01.843Z,9.700000
2023-01-08T09:21:01.066Z,7.900000
2023-01-08T09:22:01.129Z,7.900000
2023-01-08T09:23:01.119Z,7.900000
2023-01-08T09:24:01.171Z,9.700000
2023-01-08T09:25:01.593Z,9.700000
2023-01-08T09:26:02.423Z,9.200000
2023-01-08T09:27:01.122Z,9.200000
2023-01-08T09:28:01.216Z,9.400000
2023-01-08T09:29:01.119Z,9.400000
2023-01-08T09:30:01.879Z,9.400000
2023-01-08T09:31:01.137Z,9.400000
2023-01-08T09:32:01.248Z,9.400000
2023-01-08T09:33:02.725Z,9.400000
2023-01-08T09:34:01.278Z,8.200000
2023-01-08T09:35:01.720Z,8.200000
2023-01-08T09:36:01.289Z,8.000000
2023-01-08T09:37:01.167Z,8.000000
2023-01-08T09:38:00.225Z,8.000000
2023-01-08T09:39:00.210Z,8.000000
2023-01-08T09:40:03.298Z,8.000000
2023-01-08T09:41:00.211Z,8.000000
2023-01-08T09:42:00.277Z,7.500000
2023-01-08T09:43:00.236Z,7.500000
2023-01-08T09:44:00.279Z,7.500000
2023-01-08T09:45:00.921Z,7.500000
2023-01-08T09:46:00.300Z,7.500000
2023-01-08T09:47:00.318Z,9.100000
2023-01-08T09:48:00.355Z,9.100000
2023-01-08T09:49:00.241Z,8.300000
2023-01-08T09:50:01.015Z,8.300000
2023-01-08T09:51:00.284Z,7.100000
2023-01-08T09:52:00.354Z,7.100000
2023-01-08T09:53:00.265Z,7.100000
2023-01-08T09:54:00.371Z,7.700000
2023-01-08T09:55:00.933Z,7.700000
2023-01-08T09:56:09.825Z,7.700000
2023-01-08T09:57:00.304Z,9.300000
2023-01-08T09:58:03.039Z,9.300000
2023-01-08T09:59:00.321Z,9.300000
2023-01-08T10:00:02.396Z,9.300000
2023-01-08T10:01:00.488Z,9.300000
2023-01-08T10:02:00.560Z,8.100000
2023-01-08T10:03:00.494Z,8.100000
2023-01-08T10:04:00.475Z,8.100000
2023-01-08T10:05:00.916Z,8.100000
2023-01-08T10:06:00.491Z,8.100000
2023-01-08T10:07:00.414Z,7.600000
2023-01-08T10:08:00.472Z,7.600000
2023-01-08T10:09:00.447Z,7.600000
2023-01-08T10:10:01.243Z,9.600000
2023-01-08T10:11:00.413Z,9.600000
2023-01-08T10:12:00.537Z,10.700000
2023-01-08T10:13:00.448Z,10.700000
2023-01-08T10:14:00.501Z,10.700000
2023-01-08T10:15:01.259Z,10.700000
2023-01-08T10:16:00.606Z,10.700000
2023-01-08T10:17:00.478Z,9.000000
2023-01-08T10:18:00.551Z,9.000000
2023-01-08T10:19:00.467Z,9.000000
2023-01-08T10:20:02.384Z,9.000000
2023-01-08T10:21:00.498Z,9.000000
2023-01-08T10:22:00.600Z,10.700000
2023-01-08T10:23:00.501Z,10.700000
2023-01-08T10:24:00.558Z,10.700000
2023-01-08T10:25:01.071Z,10.700000
2023-01-08T10:26:00.604Z,10.700000
2023-01-08T10:27:00.598Z,11.900000
2023-01-08T10:28:00.619Z,11.900000
2023-01-08T10:29:00.529Z,11.900000
2023-01-08T10:30:01.286Z,10.000000
2023-01-08T10:31:00.711Z,10.000000
2023-01-08T10:32:00.637Z,10.000000
2023-01-08T10:33:00.552Z,13.300000
2023-01-08T10:34:00.701Z,13.300000
2023-01-08T10:35:01.115Z,13.300000
2023-01-08T10:36:00.730Z,13.300000
2023-01-08T10:37:00.589Z,11.300000
2023-01-08T10:38:00.706Z,11.300000
2023-01-08T10:39:00.608Z,11.300000
2023-01-08T10:40:01.357Z,8.300000
2023-01-08T10:41:00.613Z,8.300000
2023-01-08T10:42:00.687Z,9.100000
2023-01-08T10:43:00.620Z,9.100000
2023-01-08T10:44:00.702Z,9.100000
2023-01-08T10:45:01.172Z,9.400000
2023-01-08T10:46:00.824Z,9.400000
2023-01-08T10:47:00.646Z,9.600000
2023-01-08T10:48:00.745Z,9.600000
2023-01-08T10:49:00.688Z,9.600000
2023-01-08T10:50:02.432Z,9.000000
2023-01-08T10:51:00.689Z,9.000000
2023-01-08T10:52:00.810Z,11.000000
2023-01-08T10:53:00.707Z,11.000000
2023-01-08T10:54:00.828Z,11.000000
2023-01-08T10:55:01.557Z,11.000000
2023-01-08T10:56:00.771Z,11.000000
2023-01-08T10:57:02.544Z,10.500000
2023-01-08T10:58:00.821Z,10.500000
2023-01-08T10:59:00.738Z,10.500000
2023-01-08T11:00:01.557Z,12.700000
2023-01-08T11:01:00.882Z,12.700000
2023-01-08T11:02:00.929Z,12.700000
2023-01-08T11:03:00.820Z,14.600000
2023-01-08T11:04:02.454Z,14.600000
2023-01-08T11:05:01.359Z,14.600000
2023-01-08T11:06:00.896Z,14.600000
2023-01-08T11:07:00.830Z,14.600000
2023-01-08T11:08:00.911Z,9.800000
2023-01-08T11:09:00.851Z,9.800000
2023-01-08T11:10:01.580Z,10.000000
2023-01-08T11:11:00.835Z,10.000000
2023-01-08T11:12:00.953Z,10.000000
2023-01-08T11:13:00.885Z,11.000000
2023-01-08T11:14:01.138Z,11.000000
2023-01-08T11:15:01.700Z,11.000000
2023-01-08T11:16:01.683Z,10.700000
2023-01-08T11:17:00.879Z,10.700000
2023-01-08T11:18:02.082Z,9.900000
2023-01-08T11:19:00.899Z,9.900000
2023-01-08T11:20:02.522Z,12.100000
2023-01-08T11:21:00.917Z,12.100000
2023-01-08T11:22:03.028Z,12.100000
2023-01-08T11:23:00.912Z,10.300000
2023-01-08T11:24:01.796Z,10.300000
2023-01-08T11:25:01.408Z,10.300000
2023-01-08T11:26:02.452Z,11.100000
2023-01-08T11:27:00.938Z,11.100000
2023-01-08T11:28:01.046Z,11.100000
2023-01-08T11:29:00.944Z,12.300000
2023-01-08T11:30:01.973Z,12.300000
2023-01-08T11:31:01.188Z,12.300000
2023-01-08T11:32:01.071Z,12.300000
2023-01-08T11:33:00.966Z,11.300000
2023-01-08T11:34:01.941Z,11.300000
2023-01-08T11:35:01.510Z,11.300000
2023-01-08T11:36:01.094Z,15.000000
2023-01-08T11:37:01.009Z,15.000000